SWR1ZM LSZH-LIPZ
Flight info
| Callsign | SWR1ZM |
|---|---|
| Flight time | 0h 39m |
| Altitude | 33000 |
| Route | DEGES Y170 ARGAX DCT RESIA DCT ADOSA L612 ALBET |
| Aircraft | A20N/M-SDE2E3FGHIRWXY/LB1 |
Departure
| Time | 2026-04-26 11:21 |
|---|---|
| Airport | Zürich Airport (LSZH) |
Arrival
| Time | 2026-04-26 12:00 |
|---|---|
| Airport | Venice Marco Polo Airport (LIPZ) |
| Time | Latitude | Longitude | Altitude | Speed | Heading |
|---|---|---|---|---|---|
| 2026-04-26 11:04 | 47.45416 | 8.56000 | 1385 ft | 0 kts | 184° |
| 2026-04-26 11:12 | 47.45422 | 8.56001 | 1385 ft | 2 kts | 184° |
| 2026-04-26 11:12 | 47.45437 | 8.56002 | 1385 ft | 2 kts | 184° |
| 2026-04-26 11:12 | 47.45452 | 8.56004 | 1385 ft | 2 kts | 184° |
| 2026-04-26 11:12 | 47.45462 | 8.56005 | 1385 ft | 1 kts | 185° |
| 2026-04-26 11:13 | 47.45476 | 8.56002 | 1385 ft | 2 kts | 152° |
| 2026-04-26 11:13 | 47.45488 | 8.55988 | 1385 ft | 2 kts | 123° |
| 2026-04-26 11:13 | 47.45493 | 8.55971 | 1385 ft | 0 kts | 99° |
| 2026-04-26 11:13 | 47.45494 | 8.55962 | 1385 ft | 1 kts | 95° |
| 2026-04-26 11:14 | 47.45494 | 8.55959 | 1385 ft | 0 kts | 96° |
| 2026-04-26 11:15 | 47.45494 | 8.55963 | 1385 ft | 1 kts | 95° |
| 2026-04-26 11:15 | 47.45491 | 8.56004 | 1385 ft | 6 kts | 96° |
| 2026-04-26 11:16 | 47.45484 | 8.56089 | 1385 ft | 10 kts | 97° |
| 2026-04-26 11:16 | 47.45482 | 8.56206 | 1385 ft | 12 kts | 65° |
| 2026-04-26 11:16 | 47.45563 | 8.56252 | 1385 ft | 14 kts | 5° |
| 2026-04-26 11:16 | 47.45604 | 8.56365 | 1385 ft | 14 kts | 95° |
| 2026-04-26 11:17 | 47.45589 | 8.56546 | 1385 ft | 21 kts | 96° |
| 2026-04-26 11:17 | 47.45571 | 8.56769 | 1385 ft | 20 kts | 97° |
| 2026-04-26 11:17 | 47.45561 | 8.56952 | 1385 ft | 11 kts | 94° |
| 2026-04-26 11:17 | 47.45571 | 8.56989 | 1385 ft | 0 kts | 41° |
| 2026-04-26 11:20 | 47.45593 | 8.57007 | 1385 ft | 9 kts | 18° |
| 2026-04-26 11:20 | 47.45631 | 8.57013 | 1388 ft | 8 kts | 353° |
| 2026-04-26 11:20 | 47.45688 | 8.56685 | 1386 ft | 66 kts | 276° |
| 2026-04-26 11:20 | 47.45761 | 8.55621 | 1385 ft | 138 kts | 275° |
| 2026-04-26 11:21 | 47.45895 | 8.53965 | 1567 ft | 176 kts | 277° |
| 2026-04-26 11:21 | 47.46034 | 8.52189 | 2259 ft | 177 kts | 276° |
| 2026-04-26 11:21 | 47.46146 | 8.50417 | 3061 ft | 175 kts | 278° |
| 2026-04-26 11:21 | 47.46252 | 8.48578 | 3582 ft | 193 kts | 272° |
| 2026-04-26 11:22 | 47.45824 | 8.46562 | 3834 ft | 224 kts | 232° |
| 2026-04-26 11:22 | 47.44582 | 8.45099 | 4032 ft | 231 kts | 210° |
| 2026-04-26 11:22 | 47.43282 | 8.43728 | 4267 ft | 232 kts | 231° |
| 2026-04-26 11:22 | 47.42582 | 8.41616 | 4515 ft | 231 kts | 262° |
| 2026-04-26 11:23 | 47.42339 | 8.39230 | 4775 ft | 248 kts | 256° |
| 2026-04-26 11:23 | 47.41428 | 8.36944 | 5030 ft | 276 kts | 220° |
| 2026-04-26 11:23 | 47.39679 | 8.35792 | 5722 ft | 286 kts | 184° |
| 2026-04-26 11:23 | 47.37786 | 8.36292 | 6815 ft | 278 kts | 151° |
| 2026-04-26 11:24 | 47.36405 | 8.38173 | 7792 ft | 276 kts | 118° |
| 2026-04-26 11:24 | 47.35941 | 8.40853 | 8639 ft | 278 kts | 86° |
| 2026-04-26 11:24 | 47.36411 | 8.43585 | 9504 ft | 281 kts | 71° |
| 2026-04-26 11:24 | 47.36973 | 8.46349 | 10318 ft | 286 kts | 76° |
| 2026-04-26 11:25 | 47.37386 | 8.49233 | 10953 ft | 298 kts | 80° |
| 2026-04-26 11:25 | 47.37706 | 8.52332 | 11394 ft | 316 kts | 82° |
| 2026-04-26 11:25 | 47.37969 | 8.55657 | 11801 ft | 335 kts | 84° |
| 2026-04-26 11:25 | 47.38198 | 8.59154 | 12396 ft | 345 kts | 85° |
| 2026-04-26 11:26 | 47.38258 | 8.60161 | 12610 ft | 347 kts | 85° |
| 2026-04-26 11:26 | 47.38329 | 8.61377 | 12874 ft | 348 kts | 85° |
| 2026-04-26 11:27 | 47.38531 | 8.64971 | 13647 ft | 353 kts | 85° |
| 2026-04-26 11:27 | 47.38722 | 8.68557 | 14380 ft | 357 kts | 86° |
| 2026-04-26 11:27 | 47.38594 | 8.72188 | 15042 ft | 363 kts | 105° |
| 2026-04-26 11:27 | 47.37455 | 8.75498 | 15729 ft | 367 kts | 128° |
| 2026-04-26 11:28 | 47.35744 | 8.78323 | 16439 ft | 371 kts | 134° |
| 2026-04-26 11:28 | 47.33947 | 8.81067 | 17066 ft | 376 kts | 134° |
| 2026-04-26 11:28 | 47.32153 | 8.83877 | 17688 ft | 381 kts | 133° |
| 2026-04-26 11:28 | 47.30387 | 8.86742 | 18316 ft | 385 kts | 132° |
| 2026-04-26 11:29 | 47.28606 | 8.89708 | 18946 ft | 389 kts | 131° |
| 2026-04-26 11:29 | 47.26859 | 8.92660 | 19558 ft | 391 kts | 131° |
| 2026-04-26 11:29 | 47.25059 | 8.95723 | 20206 ft | 395 kts | 131° |
| 2026-04-26 11:29 | 47.23260 | 8.98796 | 20842 ft | 398 kts | 131° |
| 2026-04-26 11:30 | 47.21445 | 9.01898 | 21470 ft | 402 kts | 131° |
| 2026-04-26 11:30 | 47.20245 | 9.03946 | 21873 ft | 404 kts | 131° |
| 2026-04-26 11:30 | 47.17799 | 9.08122 | 22662 ft | 409 kts | 131° |
| 2026-04-26 11:30 | 47.15945 | 9.11283 | 23241 ft | 412 kts | 131° |
| 2026-04-26 11:31 | 47.14064 | 9.14485 | 23816 ft | 415 kts | 131° |
| 2026-04-26 11:31 | 47.12175 | 9.17699 | 24371 ft | 419 kts | 131° |
| 2026-04-26 11:31 | 47.10274 | 9.20928 | 24882 ft | 422 kts | 132° |
| 2026-04-26 11:31 | 47.08357 | 9.24180 | 25379 ft | 426 kts | 131° |
| 2026-04-26 11:32 | 47.06413 | 9.27458 | 25920 ft | 427 kts | 133° |
| 2026-04-26 11:32 | 47.04379 | 9.30578 | 26894 ft | 417 kts | 137° |
| 2026-04-26 11:32 | 47.02329 | 9.33385 | 28180 ft | 398 kts | 139° |
| 2026-04-26 11:32 | 47.00291 | 9.36073 | 28905 ft | 395 kts | 140° |
| 2026-04-26 11:33 | 46.98308 | 9.38683 | 29803 ft | 385 kts | 140° |
| 2026-04-26 11:33 | 46.96307 | 9.41314 | 30159 ft | 390 kts | 140° |
| 2026-04-26 11:33 | 46.94273 | 9.43983 | 30352 ft | 398 kts | 140° |
| 2026-04-26 11:33 | 46.92187 | 9.46720 | 30525 ft | 406 kts | 139° |
| 2026-04-26 11:34 | 46.90082 | 9.49481 | 30714 ft | 413 kts | 139° |
| 2026-04-26 11:34 | 46.87930 | 9.52304 | 30893 ft | 421 kts | 139° |
| 2026-04-26 11:34 | 46.85741 | 9.55173 | 31061 ft | 428 kts | 139° |
| 2026-04-26 11:34 | 46.83520 | 9.58081 | 31228 ft | 434 kts | 139° |
| 2026-04-26 11:35 | 46.81261 | 9.61035 | 31410 ft | 440 kts | 139° |
| 2026-04-26 11:35 | 46.78978 | 9.64018 | 31741 ft | 442 kts | 139° |
| 2026-04-26 11:35 | 46.76692 | 9.67004 | 32170 ft | 441 kts | 140° |
| 2026-04-26 11:35 | 46.75190 | 9.68963 | 32465 ft | 440 kts | 140° |
| 2026-04-26 11:36 | 46.72156 | 9.72915 | 33045 ft | 438 kts | 140° |
| 2026-04-26 11:36 | 46.69874 | 9.75882 | 33450 ft | 438 kts | 140° |
| 2026-04-26 11:36 | 46.67623 | 9.78805 | 33830 ft | 437 kts | 140° |
| 2026-04-26 11:36 | 46.65379 | 9.81715 | 34210 ft | 436 kts | 141° |
| 2026-04-26 11:37 | 46.63103 | 9.84662 | 34601 ft | 435 kts | 141° |
| 2026-04-26 11:37 | 46.60857 | 9.87568 | 34935 ft | 434 kts | 141° |
| 2026-04-26 11:37 | 46.58584 | 9.90503 | 35221 ft | 434 kts | 141° |
| 2026-04-26 11:37 | 46.56353 | 9.93379 | 35491 ft | 434 kts | 141° |
| 2026-04-26 11:38 | 46.54079 | 9.96311 | 35741 ft | 434 kts | 140° |
| 2026-04-26 11:38 | 46.51836 | 9.99198 | 35958 ft | 435 kts | 140° |
| 2026-04-26 11:38 | 46.49567 | 10.02115 | 36164 ft | 436 kts | 140° |
| 2026-04-26 11:38 | 46.47287 | 10.05034 | 36362 ft | 437 kts | 141° |
| 2026-04-26 11:39 | 46.44996 | 10.07836 | 36545 ft | 437 kts | 142° |
| 2026-04-26 11:39 | 46.42635 | 10.10657 | 36737 ft | 438 kts | 142° |
| 2026-04-26 11:39 | 46.40286 | 10.13453 | 36967 ft | 439 kts | 142° |
| 2026-04-26 11:39 | 46.37933 | 10.16253 | 37137 ft | 440 kts | 142° |
| 2026-04-26 11:40 | 46.33204 | 10.21893 | 37197 ft | 442 kts | 142° |
| 2026-04-26 11:40 | 46.30825 | 10.24731 | 36666 ft | 445 kts | 142° |
| 2026-04-26 11:40 | 46.28467 | 10.27538 | 36110 ft | 446 kts | 142° |
| 2026-04-26 11:41 | 46.26052 | 10.30413 | 35468 ft | 448 kts | 142° |
| 2026-04-26 11:42 | 46.09219 | 10.50361 | 30587 ft | 449 kts | 141° |
| 2026-04-26 11:43 | 46.06831 | 10.53179 | 29871 ft | 449 kts | 141° |
| 2026-04-26 11:43 | 46.04429 | 10.56010 | 29142 ft | 449 kts | 141° |
| 2026-04-26 11:43 | 46.02008 | 10.58859 | 28388 ft | 449 kts | 141° |
| 2026-04-26 11:43 | 45.99595 | 10.61696 | 27751 ft | 446 kts | 141° |
| 2026-04-26 11:44 | 45.97233 | 10.64471 | 27273 ft | 440 kts | 141° |
| 2026-04-26 11:44 | 45.94865 | 10.67249 | 26778 ft | 435 kts | 141° |
| 2026-04-26 11:44 | 45.92497 | 10.70024 | 26266 ft | 430 kts | 141° |
| 2026-04-26 11:44 | 45.90174 | 10.72742 | 25761 ft | 426 kts | 141° |
| 2026-04-26 11:45 | 45.87875 | 10.75429 | 25253 ft | 422 kts | 141° |
| 2026-04-26 11:45 | 45.85638 | 10.78040 | 24754 ft | 419 kts | 141° |
| 2026-04-26 11:45 | 45.83386 | 10.80667 | 24243 ft | 415 kts | 141° |
| 2026-04-26 11:45 | 45.81154 | 10.83268 | 23738 ft | 412 kts | 141° |
| 2026-04-26 11:46 | 45.78957 | 10.85825 | 23245 ft | 408 kts | 141° |
| 2026-04-26 11:46 | 45.76754 | 10.88385 | 22753 ft | 405 kts | 141° |
| 2026-04-26 11:46 | 45.74607 | 10.90878 | 22279 ft | 401 kts | 141° |
| 2026-04-26 11:46 | 45.72459 | 10.93370 | 21805 ft | 398 kts | 141° |
| 2026-04-26 11:47 | 45.70317 | 10.95851 | 21325 ft | 395 kts | 141° |
| 2026-04-26 11:47 | 45.68176 | 10.98330 | 20842 ft | 392 kts | 141° |
| 2026-04-26 11:47 | 45.66103 | 11.00803 | 20368 ft | 390 kts | 137° |
| 2026-04-26 11:47 | 45.64233 | 11.03566 | 19890 ft | 386 kts | 129° |
| 2026-04-26 11:48 | 45.62629 | 11.06617 | 19414 ft | 383 kts | 123° |
| 2026-04-26 11:48 | 45.61201 | 11.09764 | 18939 ft | 380 kts | 121° |
| 2026-04-26 11:48 | 45.59792 | 11.12946 | 18459 ft | 377 kts | 122° |
| 2026-04-26 11:48 | 45.58123 | 11.15790 | 18020 ft | 377 kts | 137° |
| 2026-04-26 11:49 | 45.50395 | 11.24776 | 16779 ft | 375 kts | 142° |
| 2026-04-26 11:49 | 45.48293 | 11.26985 | 16510 ft | 372 kts | 142° |
| 2026-04-26 11:49 | 45.46243 | 11.29171 | 16207 ft | 370 kts | 141° |
| 2026-04-26 11:49 | 45.37363 | 11.38950 | 14088 ft | 367 kts | 140° |
| 2026-04-26 11:50 | 45.25348 | 11.52764 | 11577 ft | 360 kts | 139° |
| 2026-04-26 11:50 | 45.23432 | 11.54985 | 11197 ft | 351 kts | 139° |
| 2026-04-26 11:50 | 45.21565 | 11.57136 | 10646 ft | 334 kts | 140° |
| 2026-04-26 11:50 | 45.19823 | 11.59126 | 10369 ft | 311 kts | 140° |
| 2026-04-26 11:51 | 45.18172 | 11.61007 | 9981 ft | 305 kts | 140° |
| 2026-04-26 11:51 | 45.16528 | 11.62876 | 9639 ft | 299 kts | 140° |
| 2026-04-26 11:51 | 45.14926 | 11.64693 | 9364 ft | 293 kts | 140° |
| 2026-04-26 11:51 | 45.13377 | 11.66448 | 9203 ft | 282 kts | 140° |
| 2026-04-26 11:52 | 45.11870 | 11.68156 | 9115 ft | 269 kts | 140° |
| 2026-04-26 11:52 | 45.10945 | 11.69300 | 9048 ft | 261 kts | 135° |
| 2026-04-26 11:52 | 45.09364 | 11.71669 | 9042 ft | 242 kts | 130° |
| 2026-04-26 11:52 | 45.08237 | 11.73466 | 9064 ft | 241 kts | 130° |
| 2026-04-26 11:53 | 45.07138 | 11.75249 | 9051 ft | 241 kts | 126° |
| 2026-04-26 11:53 | 45.06490 | 11.77384 | 9048 ft | 238 kts | 91° |
| 2026-04-26 11:53 | 45.06831 | 11.79609 | 9020 ft | 237 kts | 59° |
| 2026-04-26 11:54 | 45.09121 | 11.82997 | 8439 ft | 243 kts | 38° |
| 2026-04-26 11:54 | 45.10441 | 11.84482 | 8173 ft | 240 kts | 39° |
| 2026-04-26 11:54 | 45.11730 | 11.85981 | 7843 ft | 240 kts | 40° |
| 2026-04-26 11:54 | 45.12983 | 11.87495 | 7534 ft | 239 kts | 41° |
| 2026-04-26 11:55 | 45.17007 | 11.92488 | 6623 ft | 237 kts | 41° |
| 2026-04-26 11:55 | 45.25574 | 12.02968 | 4901 ft | 232 kts | 42° |
| 2026-04-26 11:55 | 45.26763 | 12.04514 | 4658 ft | 228 kts | 43° |
| 2026-04-26 11:55 | 45.27921 | 12.06040 | 4371 ft | 227 kts | 43° |
| 2026-04-26 11:56 | 45.31392 | 12.10578 | 3721 ft | 224 kts | 43° |
| 2026-04-26 11:56 | 45.36425 | 12.17061 | 3091 ft | 216 kts | 42° |
| 2026-04-26 11:56 | 45.37537 | 12.18481 | 2987 ft | 216 kts | 42° |
| 2026-04-26 11:56 | 45.38652 | 12.19913 | 2733 ft | 217 kts | 43° |
| 2026-04-26 11:57 | 45.39771 | 12.21356 | 2451 ft | 217 kts | 43° |
| 2026-04-26 11:57 | 45.40850 | 12.22749 | 2170 ft | 206 kts | 43° |
| 2026-04-26 11:57 | 45.41874 | 12.24070 | 1977 ft | 190 kts | 43° |
| 2026-04-26 11:57 | 45.42825 | 12.25296 | 1756 ft | 176 kts | 42° |
| 2026-04-26 11:58 | 45.43691 | 12.26411 | 1504 ft | 163 kts | 43° |
| 2026-04-26 11:58 | 45.44501 | 12.27454 | 1263 ft | 150 kts | 43° |
| 2026-04-26 11:58 | 45.45247 | 12.28415 | 1019 ft | 139 kts | 43° |
| 2026-04-26 11:58 | 45.45942 | 12.29308 | 868 ft | 135 kts | 43° |
| 2026-04-26 11:59 | 45.46643 | 12.30214 | 722 ft | 135 kts | 44° |
| 2026-04-26 11:59 | 45.47332 | 12.31100 | 554 ft | 134 kts | 43° |
| 2026-04-26 11:59 | 45.48036 | 12.31996 | 384 ft | 134 kts | 43° |
| 2026-04-26 11:59 | 45.48716 | 12.32877 | 222 ft | 134 kts | 44° |
| 2026-04-26 12:00 | 45.49409 | 12.33768 | 47 ft | 132 kts | 43° |
| 2026-04-26 12:00 | 45.50032 | 12.34572 | 9 ft | 100 kts | 43° |
| 2026-04-26 12:00 | 45.50428 | 12.35082 | 9 ft | 61 kts | 43° |
| 2026-04-26 12:00 | 45.50710 | 12.35393 | 12 ft | 37 kts | 15° |
| 2026-04-26 12:01 | 45.50909 | 12.35442 | 12 ft | 21 kts | 350° |
| 2026-04-26 12:01 | 45.50958 | 12.35263 | 10 ft | 21 kts | 268° |
| 2026-04-26 12:01 | 45.50869 | 12.35096 | 9 ft | 22 kts | 220° |
| 2026-04-26 12:01 | 45.50756 | 12.34949 | 7 ft | 22 kts | 221° |
| 2026-04-26 12:02 | 45.50637 | 12.34800 | 6 ft | 22 kts | 226° |
| 2026-04-26 12:02 | 45.50605 | 12.34675 | 7 ft | 20 kts | 271° |
| 2026-04-26 12:02 | 45.50601 | 12.34414 | 9 ft | 18 kts | 297° |
| 2026-04-26 12:02 | 45.50680 | 12.34274 | 9 ft | 17 kts | 311° |
| 2026-04-26 12:03 | 45.50705 | 12.34196 | 9 ft | 6 kts | 231° |
| 2026-04-26 12:03 | 45.50670 | 12.34150 | 9 ft | 6 kts | 223° |
| 2026-04-26 12:03 | 45.50649 | 12.34122 | 9 ft | 1 kts | 224° |
| 2026-04-26 12:03 | 45.50648 | 12.34121 | 9 ft | 0 kts | 224° |